首页
METAR-TAF:

METAR-TAF

机场 :

Horn Island, 澳大利亚

纬度: 10-35-11S, 经度: 142-07-24E, 海拔: 13米

当前天气观测

该预报发布于35分钟前的11:30 UTC
风速13节,风向东南
温度 24°C
湿度 78%
气压 1016 hPa
能见度10公里或以上

METAR: YHID 181130Z AUTO 14013KT 9999 // NCD 24/20 Q1016 RF00.0/000.0

时间: 22:05 (12:05 UTC)

预报

该预报发布于1小时和1分钟前的11:04 UTC
预报有效从18日的 12点(UTC)到 19日的 12点(UTC)
风速12节,风向东南
能见度10公里或以上
少量云层高于2000英尺
散云层高于5000英尺
从 19日的 0000点(UTC)
风速18节,风向东南
能见度10公里或以上
少量云层高于3000英尺
从 19日的 0900点(UTC)
风速14节,风向东转东南
能见度10公里或以上
散云层高于2500英尺

TAF: YHID 181104Z 1812/1912 14012KT 9999 FEW020 SCT050 FM190000 13018KT 9999 FEW030 FM190900 12014KT 9999 SCT025

超过4000个机场的气象观测和天气预报(METAR&TAF报告)。

可查询的气象台以黄色和红色小点在地图上表示。

将鼠标移到小点上方,可查看气象台名称。

然后点击查看天气观测和预报。

如需切换地图:点击带黑十字的绿色按钮放大地图;点击带横线的绿色按钮缩小地图;或者点击绿色箭头查看邻近地区的地图。


METAR-TAF: